首页
METAR-TAF:

METAR-TAF

机场 :

巴馬科國際機場

巴馬科, 马里共和国

纬度: 12-32N, 经度: 007-57W, 海拔: 380米

当前天气观测

该预报发布于1小时和15分钟前的07:30 UTC
风速6节,风向西转西南
温度 24°C
湿度 94%
气压
能见度10公里或以上
少量云层高于2000英尺
少量云层高于3000英尺, 积雨云.
雷暴, 小雨

METAR: GABS 140730Z 25006KT 9999 -TSRA FEW020 FEW030CB 24/23 Q//// TEMPO 4000 TSRA

时间: 08:45 (08:45 UTC)

预报

该预报发布于3小时和30分钟前的05:15 UTC
预报有效从14日的 06点(UTC)到 15日的 12点(UTC)
风速8节,风向西转西南
能见度10公里或以上
散云层高于2000英尺
短暂存在
从 14日的 06点(UTC)到 14日的 12点(UTC)
风速16节,风向多变,有时为30节阵风
能見度: 3000
散云层高于1000英尺
多云层高于2000英尺
散云层高于3000英尺, 积雨云.
雷暴, 雨
几率 30% :
短暂存在
从 14日的 12点(UTC)到 14日的 16点(UTC)
风速15节,风向多变,有时为25节阵风
能見度: 4500
散云层高于2000英尺
少量云层高于3000英尺, 积雨云.
雷暴, 雨
几率 40% :
短暂存在
从 14日的 16点(UTC)到 14日的 24点(UTC)
风速20节,风向,有时为40节阵风
能見度: 3000
散云层高于2000英尺
散云层高于3000英尺, 积雨云.
雷暴, 雨

TAF: GABS 140515Z 1406/1512 24008KT 9999 SCT020 TEMPO 1406/1412 VRB16G30KT 3000 TSRA SCT010 BKN020 SCT030CB PROB30 TEMPO 1412/1416 VRB15G25KT 4500 TSRA SCT020 FEW030CB PROB40 TEMPO 1416/1424 08020G40KT 3000 TSRA SCT020 SCT030CB

超过4000个机场的气象观测和天气预报(METAR&TAF报告)。

可查询的气象台以黄色和红色小点在地图上表示。

将鼠标移到小点上方,可查看气象台名称。

然后点击查看天气观测和预报。

如需切换地图:点击带黑十字的绿色按钮放大地图;点击带横线的绿色按钮缩小地图;或者点击绿色箭头查看邻近地区的地图。


METAR-TAF: